createdAt,value
2024-05-09T00:00:42.630Z,99685.66
2024-05-09T00:03:11.427Z,99682.42
2024-05-09T00:05:43.762Z,99680.81
2024-05-09T00:08:11.844Z,99680.45
2024-05-09T00:10:40.714Z,99681.77
2024-05-09T00:13:09.737Z,99682.69
2024-05-09T00:15:37.596Z,99677.23
2024-05-09T00:18:06.474Z,99677.81
2024-05-09T00:20:38.916Z,99677.81
2024-05-09T00:23:13.617Z,99678.67
2024-05-09T00:25:42.657Z,99678.89
2024-05-09T00:28:11.842Z,99679.45
2024-05-09T00:30:39.183Z,99678.39
2024-05-09T00:33:08.522Z,99677.48
2024-05-09T00:35:37.761Z,99681.30
2024-05-09T00:38:05.457Z,99682.52
2024-05-09T00:40:39.477Z,99680.58
2024-05-09T00:43:14.350Z,99675.55
2024-05-09T00:45:43.073Z,99682.38
2024-05-09T00:48:14.205Z,99679.97
2024-05-09T00:50:44.423Z,99679.52
2024-05-09T00:53:12.132Z,99681.14
2024-05-09T00:55:39.647Z,99678.50
2024-05-09T00:58:07.895Z,99683.60
2024-05-09T01:00:39.276Z,99682.30
2024-05-09T01:03:17.667Z,99678.94
2024-05-09T01:05:45.322Z,99679.92
2024-05-09T01:08:12.862Z,99679.59
2024-05-09T01:10:43.778Z,99680.88
2024-05-09T01:13:12.710Z,99679.69
2024-05-09T01:15:40.034Z,99685.52
2024-05-09T01:18:10.394Z,99689.66
2024-05-09T01:20:42.315Z,99685.48
2024-05-09T01:23:14.029Z,99686.30
2024-05-09T01:25:46.698Z,99688.15
2024-05-09T01:28:15.142Z,99690.98
2024-05-09T01:30:42.663Z,99690.41
2024-05-09T01:33:11.669Z,99688.06
2024-05-09T01:35:42.035Z,99692.80
2024-05-09T01:38:17.067Z,99691.05
2024-05-09T01:40:44.952Z,99688.42
2024-05-09T01:43:12.579Z,99684.43
2024-05-09T01:45:40.600Z,99682.04
2024-05-09T01:48:09.103Z,99684.54
2024-05-09T01:50:40.436Z,99684.51
2024-05-09T01:53:10.882Z,99680.83
2024-05-09T01:55:38.818Z,99680.02
2024-05-09T01:58:06.346Z,99683.25
2024-05-09T02:00:39.410Z,99685.60
2024-05-09T02:03:14.330Z,99688.11
2024-05-09T02:05:48.395Z,99691.46
2024-05-09T02:08:17.863Z,99693.35
2024-05-09T02:10:46.898Z,99695.97
2024-05-09T02:13:14.924Z,99699.80
2024-05-09T02:15:42.344Z,99704.67
2024-05-09T02:18:10.399Z,99711.81
2024-05-09T02:20:39.226Z,99709.10
2024-05-09T02:23:07.170Z,99706.46
2024-05-09T02:25:35.018Z,99706.64
2024-05-09T02:28:02.470Z,99708.09
2024-05-09T02:30:38.567Z,99706.34
2024-05-09T02:33:13.453Z,99703.50
2024-05-09T02:35:42.762Z,99709.45
2024-05-09T02:38:11.078Z,99716.57
2024-05-09T02:40:39.795Z,99721.23
2024-05-09T02:43:09.525Z,99722.79
2024-05-09T02:45:39.202Z,99715.77
2024-05-09T02:48:09.749Z,99716.05
2024-05-09T02:50:39.517Z,99719.13
2024-05-09T02:53:08.422Z,99722.70
2024-05-09T02:55:36.642Z,99721.34
2024-05-09T02:58:04.095Z,99729.47
2024-05-09T03:00:38.387Z,99729.11
2024-05-09T03:03:10.168Z,99733.67
2024-05-09T03:05:40.082Z,99734.46
2024-05-09T03:08:07.838Z,99737.24
2024-05-09T03:10:39.532Z,99738.48
2024-05-09T03:13:12.202Z,99742.94
2024-05-09T03:15:40.338Z,99746.58
2024-05-09T03:18:07.864Z,99750.90
2024-05-09T03:20:36.598Z,99752.49
2024-05-09T03:23:06.096Z,99748.86
2024-05-09T03:25:34.029Z,99750.69
2024-05-09T03:28:01.667Z,99746.70
2024-05-09T03:30:36.239Z,99746.86
2024-05-09T03:33:13.943Z,99749.65
2024-05-09T03:35:43.538Z,99747.58
2024-05-09T03:38:11.045Z,99742.89
2024-05-09T03:40:44.910Z,99746.80
2024-05-09T03:43:13.072Z,99748.11
2024-05-09T03:45:40.371Z,99749.40
2024-05-09T03:48:08.487Z,99753.46
2024-05-09T03:50:36.976Z,99754.62
2024-05-09T03:53:05.288Z,99760.90
2024-05-09T03:55:32.811Z,99763.00
2024-05-09T03:58:00.246Z,99766.69
2024-05-09T04:00:35.518Z,99765.52
2024-05-09T04:03:08.758Z,99767.87
2024-05-09T04:05:42.893Z,99763.86
2024-05-09T04:08:14.468Z,99763.89
2024-05-09T04:10:42.048Z,99770.40
2024-05-09T04:13:10.328Z,99775.23
2024-05-09T04:15:37.744Z,99775.06
2024-05-09T04:18:07.982Z,99778.33
2024-05-09T04:20:39.199Z,99780.89
2024-05-09T04:23:13.091Z,99783.44
2024-05-09T04:25:41.903Z,99781.49
2024-05-09T04:28:09.254Z,99788.59
2024-05-09T04:30:39.616Z,99786.66
2024-05-09T04:33:11.836Z,99788.45
2024-05-09T04:35:44.998Z,99788.52
2024-05-09T04:38:14.442Z,99794.12
2024-05-09T04:40:42.518Z,99797.83
2024-05-09T04:43:18.681Z,99799.42
2024-05-09T04:45:45.950Z,99797.98
2024-05-09T04:48:13.484Z,99802.11
2024-05-09T04:50:41.406Z,99798.39
2024-05-09T04:53:11.242Z,99797.73
2024-05-09T04:55:40.719Z,99797.83
2024-05-09T04:58:08.942Z,99799.92
2024-05-09T05:00:38.652Z,99804.79
2024-05-09T05:03:10.085Z,99806.70
2024-05-09T05:05:42.689Z,99805.30
2024-05-09T05:08:18.420Z,99806.46
2024-05-09T05:10:47.604Z,99805.10
2024-05-09T05:13:17.629Z,99804.45
2024-05-09T05:15:46.310Z,99804.16
2024-05-09T05:18:14.876Z,99808.10
2024-05-09T05:20:42.919Z,99809.56
2024-05-09T05:23:15.291Z,99811.46
2024-05-09T05:25:42.915Z,99808.98
2024-05-09T05:28:10.379Z,99807.83
2024-05-09T05:30:39.040Z,99809.98
2024-05-09T05:33:07.380Z,99811.58
2024-05-09T05:35:35.187Z,99812.39
2024-05-09T05:38:03.523Z,99808.81
2024-05-09T05:40:36.363Z,99810.36
2024-05-09T05:43:09.722Z,99811.16
2024-05-09T05:45:37.663Z,99812.13
2024-05-09T05:48:06.266Z,99810.39
2024-05-09T05:50:37.189Z,99813.52
2024-05-09T05:53:09.699Z,99814.56
2024-05-09T05:55:39.189Z,99814.45
2024-05-09T05:58:14.443Z,99813.38
2024-05-09T06:00:42.518Z,99817.81
2024-05-09T06:03:12.014Z,99812.83
2024-05-09T06:05:40.802Z,99812.34
2024-05-09T06:08:09.247Z,99811.71
2024-05-09T06:10:39.864Z,99812.95
2024-05-09T06:13:10.832Z,99811.59
2024-05-09T06:15:39.012Z,99815.67
2024-05-09T06:18:07.834Z,99816.05
2024-05-09T06:20:37.693Z,99813.14
2024-05-09T06:23:06.981Z,99810.13
2024-05-09T06:25:35.743Z,99806.77
2024-05-09T06:28:03.369Z,99807.04
2024-05-09T06:30:38.613Z,99807.60
2024-05-09T06:33:10.121Z,99804.67
2024-05-09T06:35:38.758Z,99800.34
2024-05-09T06:38:11.016Z,99798.52
2024-05-09T06:40:41.018Z,99796.38
2024-05-09T06:43:18.366Z,99796.08
2024-05-09T06:45:48.345Z,99796.67
2024-05-09T06:48:20.442Z,99796.92
2024-05-09T06:50:48.518Z,99799.48
2024-05-09T06:53:17.406Z,99794.68
2024-05-09T06:55:45.243Z,99797.77
2024-05-09T06:58:12.677Z,99803.19
2024-05-09T07:00:41.651Z,99804.97
2024-05-09T07:03:11.421Z,99805.05
2024-05-09T07:05:39.842Z,99803.35
2024-05-09T07:08:07.347Z,99806.15
2024-05-09T07:10:36.139Z,99804.08
2024-05-09T07:13:14.038Z,99806.98
2024-05-09T07:15:41.847Z,99802.14
2024-05-09T07:18:13.849Z,99800.40
2024-05-09T07:20:42.039Z,99807.29
2024-05-09T07:23:10.598Z,99804.69
2024-05-09T07:25:40.207Z,99809.95
2024-05-09T07:28:13.288Z,99804.34
2024-05-09T07:30:43.340Z,99805.41
2024-05-09T07:33:17.889Z,99802.47
2024-05-09T07:35:46.520Z,99796.88
2024-05-09T07:38:14.724Z,99800.73
2024-05-09T07:40:43.300Z,99803.91
2024-05-09T07:43:13.328Z,99802.52
2024-05-09T07:45:50.837Z,99800.77
2024-05-09T07:52:37.789Z,99802.89
2024-05-09T07:53:47.766Z,99799.08
2024-05-09T07:56:21.216Z,99801.17
2024-05-09T07:58:51.217Z,99796.80
2024-05-09T08:01:20.181Z,99794.52
2024-05-09T08:03:50.002Z,99795.58
2024-05-09T08:06:17.509Z,99799.45
2024-05-09T08:08:47.251Z,99794.91
2024-05-09T08:11:16.928Z,99796.14
2024-05-09T08:13:45.333Z,99798.76
2024-05-09T08:19:43.179Z,99793.36
2024-05-09T08:22:10.972Z,99794.59
2024-05-09T08:24:38.768Z,99793.20
2024-05-09T08:27:06.177Z,99789.35
2024-05-09T08:29:36.952Z,99789.34
2024-05-09T08:32:05.969Z,99787.59
2024-05-09T08:34:33.433Z,99787.42
2024-05-09T08:37:10.045Z,99786.36
2024-05-09T08:39:42.960Z,99784.27
2024-05-09T08:42:10.278Z,99783.53
2024-05-09T08:44:37.910Z,99783.52
2024-05-09T08:47:08.486Z,99784.73
2024-05-09T08:49:37.786Z,99781.58
2024-05-09T08:52:06.898Z,99775.43
2024-05-09T08:54:34.246Z,99773.85
2024-05-09T08:57:01.548Z,99773.66
2024-05-09T08:59:35.336Z,99774.19
2024-05-09T09:02:02.854Z,99773.13
2024-05-09T09:04:30.596Z,99776.79
2024-05-09T09:06:59.786Z,99776.05
2024-05-09T09:09:27.874Z,99777.42
2024-05-09T09:11:56.022Z,99773.88
2024-05-09T09:14:23.788Z,99774.73
2024-05-09T09:16:52.011Z,99773.30
2024-05-09T09:19:19.648Z,99769.61
2024-05-09T09:21:46.987Z,99774.70
2024-05-09T09:24:14.417Z,99772.95
2024-05-09T09:26:45.382Z,99768.02
2024-05-09T09:29:12.934Z,99763.82
2024-05-09T09:31:42.309Z,99761.00
2024-05-09T09:34:11.250Z,99760.46
2024-05-09T09:36:39.014Z,99761.83
2024-05-09T09:39:06.824Z,99754.04
2024-05-09T09:41:34.277Z,99752.61
2024-05-09T09:44:04.113Z,99748.30
2024-05-09T09:46:32.127Z,99751.73
2024-05-09T09:52:22.255Z,99745.04
2024-05-09T09:54:49.945Z,99748.71
2024-05-09T09:57:19.301Z,99745.70
2024-05-09T09:59:46.870Z,99743.40
2024-05-09T10:02:14.477Z,99740.91
2024-05-09T10:04:42.149Z,99743.85
2024-05-09T10:07:09.854Z,99739.77
2024-05-09T10:09:37.428Z,99735.51
2024-05-09T10:12:11.824Z,99734.77
2024-05-09T10:14:53.606Z,99739.20
2024-05-09T10:17:20.919Z,99739.77
2024-05-09T10:19:48.436Z,99735.96
2024-05-09T10:22:26.984Z,99732.10
2024-05-09T10:24:54.487Z,99738.25
2024-05-09T10:27:28.832Z,99736.66
2024-05-09T10:29:59.463Z,99737.00
2024-05-09T10:32:27.397Z,99736.30
2024-05-09T10:35:08.556Z,99737.86
2024-05-09T10:37:35.912Z,99734.13
2024-05-09T10:40:07.212Z,99733.41
2024-05-09T10:42:39.107Z,99736.55
2024-05-09T10:45:07.325Z,99733.13
2024-05-09T10:47:34.771Z,99731.08
2024-05-09T10:50:02.207Z,99724.80
2024-05-09T10:52:29.689Z,99724.83
2024-05-09T10:54:57.091Z,99720.08
2024-05-09T10:57:24.773Z,99723.15
2024-05-09T10:59:52.118Z,99721.31
2024-05-09T11:02:19.523Z,99720.11
2024-05-09T11:04:47.027Z,99720.14
2024-05-09T11:07:15.778Z,99718.69
2024-05-09T11:09:43.347Z,99716.43
2024-05-09T11:12:10.727Z,99713.49
2024-05-09T11:14:38.271Z,99713.73
2024-05-09T11:17:07.062Z,99711.23
2024-05-09T11:19:37.988Z,99707.10
2024-05-09T11:22:06.136Z,99702.13
2024-05-09T11:24:34.481Z,99701.83
2024-05-09T11:27:03.500Z,99699.33
2024-05-09T11:29:46.769Z,99698.45
2024-05-09T11:32:16.488Z,99697.45
2024-05-09T11:34:44.639Z,99694.08
2024-05-09T11:37:13.701Z,99692.20
2024-05-09T11:39:41.289Z,99691.13
2024-05-09T11:42:08.925Z,99689.52
2024-05-09T11:44:55.959Z,99688.73
2024-05-09T11:47:23.409Z,99690.35
2024-05-09T11:49:51.007Z,99690.73
2024-05-09T11:52:18.505Z,99687.55
2024-05-09T11:54:45.966Z,99683.92
2024-05-09T11:57:13.388Z,99687.94
2024-05-09T11:59:40.955Z,99684.15
2024-05-09T12:02:08.508Z,99680.90
2024-05-09T12:04:40.800Z,99681.70
2024-05-09T12:10:38.844Z,99676.07
2024-05-09T12:13:07.732Z,99673.58
2024-05-09T12:15:38.280Z,99673.91
2024-05-09T12:18:08.139Z,99675.02
2024-05-09T12:20:38.810Z,99672.70
2024-05-09T12:23:09.730Z,99669.89
2024-05-09T12:25:38.511Z,99667.27
2024-05-09T12:28:06.689Z,99665.62
2024-05-09T12:30:38.370Z,99666.88
2024-05-09T12:33:09.619Z,99664.87
2024-05-09T12:35:37.429Z,99668.19
2024-05-09T12:38:05.024Z,99664.67
2024-05-09T12:40:36.791Z,99658.77
2024-05-09T12:43:06.943Z,99657.04
2024-05-09T12:45:34.572Z,99659.61
2024-05-09T12:48:02.017Z,99658.08
2024-05-09T12:50:32.831Z,99650.95
2024-05-09T12:53:43.775Z,99651.67
2024-05-09T12:56:11.667Z,99651.16
2024-05-09T12:58:39.621Z,99653.12
2024-05-09T13:01:09.626Z,99645.73
2024-05-09T13:04:28.226Z,99640.86
2024-05-09T13:06:55.631Z,99640.56
2024-05-09T13:09:23.098Z,99637.23
2024-05-09T13:11:50.588Z,99638.48
2024-05-09T13:14:18.214Z,99636.59
2024-05-09T13:16:45.823Z,99629.36
2024-05-09T13:19:13.373Z,99631.58
2024-05-09T13:21:40.747Z,99623.92
2024-05-09T13:24:08.142Z,99625.48
2024-05-09T13:26:35.907Z,99616.63
2024-05-09T13:29:03.263Z,99620.81
2024-05-09T13:31:30.662Z,99620.84
2024-05-09T13:33:58.348Z,99622.34
2024-05-09T13:36:25.852Z,99626.75
2024-05-09T13:38:53.204Z,99624.46
2024-05-09T13:41:20.475Z,99621.26
2024-05-09T13:43:47.901Z,99617.66
2024-05-09T13:46:15.323Z,99614.33
2024-05-09T13:48:42.929Z,99607.80
2024-05-09T13:51:10.493Z,99611.58
2024-05-09T13:53:37.835Z,99611.23
2024-05-09T13:56:05.702Z,99605.84
2024-05-09T13:58:33.062Z,99607.38
2024-05-09T14:01:01.834Z,99606.98
2024-05-09T14:03:31.245Z,99607.00
2024-05-09T14:05:59.264Z,99603.17
2024-05-09T14:08:26.673Z,99599.79
2024-05-09T14:10:54.121Z,99595.80
2024-05-09T14:13:21.599Z,99593.33
2024-05-09T14:15:49.253Z,99592.31
2024-05-09T14:18:17.485Z,99590.32
2024-05-09T14:20:46.634Z,99590.55
2024-05-09T14:23:14.611Z,99587.59
2024-05-09T14:25:43.533Z,99585.77
2024-05-09T14:28:12.536Z,99583.08
2024-05-09T14:30:41.137Z,99577.84
2024-05-09T14:33:09.382Z,99572.73
2024-05-09T14:35:37.935Z,99577.41
2024-05-09T14:38:06.529Z,99572.31
2024-05-09T14:43:04.133Z,99567.92
2024-05-09T14:45:32.182Z,99564.73
2024-05-09T14:47:59.586Z,99565.67
2024-05-09T14:50:34.852Z,99568.83
2024-05-09T14:53:06.931Z,99568.11
2024-05-09T14:55:36.570Z,99565.80
2024-05-09T14:58:11.409Z,99564.25
2024-05-09T15:00:45.755Z,99563.27
2024-05-09T15:03:21.009Z,99562.22
2024-05-09T15:05:49.708Z,99561.95
2024-05-09T15:08:18.235Z,99567.16
2024-05-09T15:10:46.689Z,99561.29
2024-05-09T15:13:16.489Z,99558.34
2024-05-09T15:15:45.055Z,99556.17
2024-05-09T15:18:13.863Z,99559.42
2024-05-09T15:20:41.532Z,99558.05
2024-05-09T15:23:09.093Z,99556.83
2024-05-09T15:25:37.153Z,99550.18
2024-05-09T15:28:07.069Z,99549.43
2024-05-09T15:30:35.098Z,99548.54
2024-05-09T15:33:07.515Z,99545.02
2024-05-09T15:35:41.105Z,99543.48
2024-05-09T15:38:08.866Z,99540.06
2024-05-09T15:40:39.974Z,99540.83
2024-05-09T15:43:09.577Z,99541.84
2024-05-09T15:45:39.191Z,99542.15
2024-05-09T15:48:08.104Z,99536.56
2024-05-09T15:50:39.517Z,99536.35
2024-05-09T15:53:10.122Z,99536.27
2024-05-09T15:55:38.638Z,99534.20
2024-05-09T15:58:07.139Z,99532.52
2024-05-09T16:00:39.298Z,99535.92
2024-05-09T16:03:10.798Z,99536.84
2024-05-09T16:05:41.027Z,99536.27
2024-05-09T16:08:08.793Z,99536.59
2024-05-09T16:10:38.756Z,99540.58
2024-05-09T16:13:06.722Z,99538.46
2024-05-09T16:15:34.273Z,99541.48
2024-05-09T16:18:01.775Z,99538.98
2024-05-09T16:20:38.957Z,99534.46
2024-05-09T16:23:09.318Z,99534.02
2024-05-09T16:25:38.422Z,99531.05
2024-05-09T16:28:09.715Z,99531.58
2024-05-09T16:30:39.178Z,99527.40
2024-05-09T16:33:07.131Z,99526.77
2024-05-09T16:35:34.957Z,99527.58
2024-05-09T16:38:02.957Z,99529.38
2024-05-09T16:40:37.334Z,99526.27
2024-05-09T16:43:12.143Z,99530.55
2024-05-09T16:45:41.133Z,99533.40
2024-05-09T16:48:08.985Z,99532.70
2024-05-09T16:50:36.905Z,99532.41
2024-05-09T16:53:05.852Z,99532.04
2024-05-09T16:55:35.142Z,99533.90
2024-05-09T16:58:03.432Z,99532.48
2024-05-09T17:00:39.388Z,99535.02
2024-05-09T17:03:12.348Z,99531.58
2024-05-09T17:05:40.961Z,99530.75
2024-05-09T17:08:08.746Z,99533.97
2024-05-09T17:10:36.816Z,99531.27
2024-05-09T17:13:06.615Z,99529.66
2024-05-09T17:15:38.491Z,99527.59
2024-05-09T17:18:06.972Z,99526.27
2024-05-09T17:20:36.770Z,99525.13
2024-05-09T17:23:05.966Z,99521.33
2024-05-09T17:25:33.750Z,99524.05
2024-05-09T17:28:07.075Z,99524.83
2024-05-09T17:30:37.343Z,99520.50
2024-05-09T17:33:07.376Z,99516.34
2024-05-09T17:35:38.048Z,99518.74
2024-05-09T17:38:05.733Z,99519.36
2024-05-09T17:40:36.057Z,99518.54
2024-05-09T17:43:06.264Z,99516.33
2024-05-09T17:45:35.017Z,99516.22
2024-05-09T17:48:02.838Z,99521.04
2024-05-09T17:50:35.666Z,99520.06
2024-05-09T17:53:06.351Z,99525.22
2024-05-09T17:55:34.203Z,99528.48
2024-05-09T17:58:01.964Z,99529.41
2024-05-09T18:00:37.392Z,99528.75
2024-05-09T18:03:08.229Z,99531.48
2024-05-09T18:05:37.030Z,99532.79
2024-05-09T18:08:08.604Z,99536.14
2024-05-09T18:10:38.999Z,99533.03
2024-05-09T18:13:10.371Z,99537.80
2024-05-09T18:15:41.995Z,99540.13
2024-05-09T18:18:10.495Z,99543.15
2024-05-09T18:20:43.659Z,99548.10
2024-05-09T18:23:18.777Z,99545.31
2024-05-09T18:25:47.050Z,99544.81
2024-05-09T18:28:15.716Z,99552.21
2024-05-09T18:30:43.529Z,99554.50
2024-05-09T18:33:11.696Z,99554.34
2024-05-09T18:35:41.090Z,99553.64
2024-05-09T18:38:08.860Z,99558.20
2024-05-09T18:40:38.372Z,99560.51
2024-05-09T18:43:08.562Z,99563.15
2024-05-09T18:45:37.809Z,99565.97
2024-05-09T18:48:09.297Z,99568.98
2024-05-09T18:50:39.809Z,99567.75
2024-05-09T18:53:09.657Z,99566.89
2024-05-09T18:55:37.020Z,99563.75
2024-05-09T18:58:05.855Z,99571.27
2024-05-09T19:00:37.513Z,99576.55
2024-05-09T19:03:12.913Z,99577.77
2024-05-09T19:05:43.161Z,99579.34
2024-05-09T19:08:11.748Z,99579.17
2024-05-09T19:10:39.337Z,99578.81
2024-05-09T19:13:11.076Z,99577.05
2024-05-09T19:15:41.087Z,99580.89
2024-05-09T19:18:09.778Z,99584.91
2024-05-09T19:20:37.987Z,99586.15
2024-05-09T19:23:06.198Z,99587.89
2024-05-09T19:25:34.583Z,99593.31
2024-05-09T19:28:03.046Z,99593.63
2024-05-09T19:30:38.445Z,99591.35
2024-05-09T19:33:10.168Z,99593.44
2024-05-09T19:35:38.867Z,99589.59
2024-05-09T19:38:06.269Z,99594.48
2024-05-09T19:40:34.915Z,99592.18
2024-05-09T19:43:04.068Z,99592.52
2024-05-09T19:45:36.260Z,99590.92
2024-05-09T19:48:05.003Z,99591.79
2024-05-09T19:50:40.869Z,99594.55
2024-05-09T19:53:12.090Z,99595.77
2024-05-09T19:55:40.179Z,99596.26
2024-05-09T19:58:08.405Z,99600.08
2024-05-09T20:00:38.253Z,99606.36
2024-05-09T20:03:08.013Z,99600.73
2024-05-09T20:05:36.287Z,99605.91
2024-05-09T20:08:04.674Z,99604.83
2024-05-09T20:10:34.282Z,99607.42
2024-05-09T20:13:04.270Z,99610.18
2024-05-09T20:15:33.146Z,99611.55
2024-05-09T20:18:00.689Z,99613.45
2024-05-09T20:20:36.253Z,99612.38
2024-05-09T20:23:07.339Z,99613.41
2024-05-09T20:25:34.620Z,99611.27
2024-05-09T20:28:01.970Z,99614.73
2024-05-09T20:30:32.687Z,99614.73
2024-05-09T20:33:02.112Z,99616.99
2024-05-09T20:35:31.738Z,99615.61
2024-05-09T20:37:59.271Z,99616.31
2024-05-09T20:40:36.197Z,99616.65
2024-05-09T20:43:07.077Z,99613.85
2024-05-09T20:45:35.138Z,99614.31
2024-05-09T20:48:02.967Z,99619.67
2024-05-09T20:50:37.489Z,99621.14
2024-05-09T20:53:11.967Z,99621.41
2024-05-09T20:55:40.550Z,99622.25
2024-05-09T20:58:08.499Z,99619.45
2024-05-09T21:00:40.312Z,99621.36
2024-05-09T21:03:11.642Z,99619.60
2024-05-09T21:05:39.870Z,99621.44
2024-05-09T21:08:07.702Z,99620.98
2024-05-09T21:10:36.049Z,99624.04
2024-05-09T21:13:04.315Z,99622.77
2024-05-09T21:15:32.256Z,99623.77
2024-05-09T21:17:59.818Z,99623.13
2024-05-09T21:22:57.502Z,99626.68
2024-05-09T21:25:24.700Z,99626.52
2024-05-09T21:27:52.358Z,99625.65
2024-05-09T21:30:31.287Z,99630.11
2024-05-09T21:33:06.275Z,99634.59
2024-05-09T21:35:33.957Z,99635.23
2024-05-09T21:38:01.311Z,99641.66
2024-05-09T21:40:34.227Z,99639.65
2024-05-09T21:43:03.983Z,99638.54
2024-05-09T21:45:31.536Z,99643.50
2024-05-09T21:47:58.963Z,99646.05
2024-05-09T21:50:36.138Z,99647.77
2024-05-09T21:53:07.580Z,99652.42
2024-05-09T21:55:35.056Z,99655.64
2024-05-09T21:58:03.146Z,99657.21
2024-05-09T22:00:36.453Z,99657.88
2024-05-09T22:03:10.273Z,99658.17
2024-05-09T22:05:39.050Z,99657.60
2024-05-09T22:08:06.694Z,99658.59
2024-05-09T22:10:36.117Z,99658.58
2024-05-09T22:13:05.400Z,99656.85
2024-05-09T22:15:35.750Z,99656.33
2024-05-09T22:18:04.227Z,99655.06
2024-05-09T22:20:37.110Z,99653.06
2024-05-09T22:23:07.153Z,99655.23
2024-05-09T22:25:34.807Z,99654.41
2024-05-09T22:28:02.942Z,99657.16
2024-05-09T22:30:36.225Z,99658.19
2024-05-09T22:33:07.146Z,99655.05
2024-05-09T22:35:34.846Z,99659.25
2024-05-09T22:38:02.714Z,99657.84
2024-05-09T22:40:38.921Z,99657.09
2024-05-09T22:43:16.429Z,99657.20
2024-05-09T22:45:44.003Z,99652.20
2024-05-09T22:48:11.396Z,99652.04
2024-05-09T22:50:38.801Z,99650.27
2024-05-09T22:53:06.079Z,99653.31
2024-05-09T22:55:33.334Z,99648.00
2024-05-09T22:58:00.654Z,99645.80
2024-05-09T23:00:31.775Z,99645.71
2024-05-09T23:03:00.726Z,99649.14
2024-05-09T23:05:28.547Z,99648.72
2024-05-09T23:07:55.919Z,99649.02
2024-05-09T23:10:31.048Z,99648.48
2024-05-09T23:13:02.865Z,99648.14
2024-05-09T23:15:30.358Z,99647.52
2024-05-09T23:17:58.386Z,99646.23
2024-05-09T23:20:35.959Z,99645.61
2024-05-09T23:23:06.693Z,99648.63
2024-05-09T23:25:34.670Z,99651.20
2024-05-09T23:28:02.258Z,99652.39
2024-05-09T23:30:37.359Z,99648.39
2024-05-09T23:33:08.089Z,99651.15
2024-05-09T23:35:35.721Z,99647.00
2024-05-09T23:38:02.998Z,99647.04
2024-05-09T23:40:38.404Z,99649.10
2024-05-09T23:43:09.006Z,99648.14
2024-05-09T23:45:36.929Z,99651.38
2024-05-09T23:48:05.013Z,99648.38
2024-05-09T23:50:36.337Z,99645.59
2024-05-09T23:53:06.377Z,99646.27
2024-05-09T23:55:34.960Z,99647.24
2024-05-09T23:58:02.241Z,99649.95
